createdAt,value
2018-02-23T00:01:06.435Z,-1.20
2018-02-23T00:03:35.521Z,-1.20
2018-02-23T00:06:07.491Z,-1.20
2018-02-23T00:11:10.206Z,-1.20
2018-02-23T00:13:39.248Z,-1.30
2018-02-23T00:16:07.670Z,-1.20
2018-02-23T00:18:37.582Z,-1.20
2018-02-23T00:21:06.595Z,-1.20
2018-02-23T00:23:36.680Z,-1.10
2018-02-23T00:26:04.971Z,-1.20
2018-02-23T00:28:36.104Z,-1.20
2018-02-23T00:31:03.669Z,-1.20
2018-02-23T00:33:33.239Z,-1.20
2018-02-23T00:36:03.717Z,-1.20
2018-02-23T00:38:34.507Z,-1.30
2018-02-23T00:41:06.304Z,-1.20
2018-02-23T00:43:34.716Z,-1.20
2018-02-23T00:46:02.991Z,-1.30
2018-02-23T00:48:33.184Z,-1.40
2018-02-23T00:51:01.584Z,-1.30
2018-02-23T00:53:31.255Z,-1.30
2018-02-23T00:56:01.379Z,-1.30
2018-02-23T00:58:29.047Z,-1.20
2018-02-23T01:00:57.854Z,-1.30
2018-02-23T01:03:27.039Z,-1.20
2018-02-23T01:08:31.813Z,-1.20
2018-02-23T01:11:00.090Z,-1.20
2018-02-23T01:13:29.421Z,-1.20
2018-02-23T01:15:59.585Z,-1.20
2018-02-23T01:21:02.579Z,-1.30
2018-02-23T01:23:31.618Z,-1.30
2018-02-23T01:26:03.875Z,-1.20
2018-02-23T01:28:31.499Z,-1.30
2018-02-23T01:31:03.905Z,-1.30
2018-02-23T01:33:32.559Z,-1.20
2018-02-23T01:36:01.846Z,-1.50
2018-02-23T01:38:32.213Z,-1.40
2018-02-23T01:41:01.017Z,-1.60
2018-02-23T01:43:29.331Z,-1.50
2018-02-23T01:45:58.537Z,-1.40
2018-02-23T01:48:26.997Z,-1.40
2018-02-23T01:51:03.343Z,-1.40
2018-02-23T01:53:32.498Z,-1.30
2018-02-23T01:56:04.479Z,-1.50
2018-02-23T01:58:34.066Z,-1.50
2018-02-23T02:01:02.534Z,-1.40
2018-02-23T02:03:35.012Z,-1.50
2018-02-23T02:06:05.139Z,-1.40
2018-02-23T02:08:35.360Z,-1.40
2018-02-23T02:11:07.499Z,-1.40
2018-02-23T02:13:36.119Z,-1.40
2018-02-23T02:16:07.367Z,-1.30
2018-02-23T02:18:35.005Z,-1.30
2018-02-23T02:21:06.114Z,-1.40
2018-02-23T02:23:39.878Z,-1.30
2018-02-23T02:26:10.296Z,-1.40
2018-02-23T02:28:40.726Z,-1.40
2018-02-23T02:31:09.903Z,-1.50
2018-02-23T02:33:42.988Z,-1.60
2018-02-23T02:36:13.052Z,-1.50
2018-02-23T02:38:43.376Z,-1.30
2018-02-23T02:41:12.483Z,-1.40
2018-02-23T02:43:42.214Z,-1.50
2018-02-23T02:46:12.056Z,-1.40
2018-02-23T02:48:41.118Z,-1.30
2018-02-23T02:51:10.006Z,-1.30
2018-02-23T02:53:42.427Z,-1.40
2018-02-23T02:56:14.640Z,-1.60
2018-02-23T02:58:43.037Z,-1.60
2018-02-23T03:01:15.064Z,-1.50
2018-02-23T03:03:42.755Z,-1.40
2018-02-23T03:06:13.219Z,-1.40
2018-02-23T03:08:42.541Z,-1.50
2018-02-23T03:11:12.512Z,-1.40
2018-02-23T03:13:42.705Z,-1.40
2018-02-23T03:16:10.740Z,-1.40
2018-02-23T03:18:40.022Z,-1.50
2018-02-23T03:21:08.020Z,-1.80
2018-02-23T03:23:36.514Z,-1.50
2018-02-23T03:26:04.237Z,-1.50
2018-02-23T03:28:31.830Z,-1.40
2018-02-23T03:30:59.445Z,-1.40
2018-02-23T03:33:27.903Z,-1.40
2018-02-23T03:35:55.516Z,-1.50
2018-02-23T03:38:25.926Z,-1.50
2018-02-23T03:40:53.549Z,-1.40
2018-02-23T03:43:22.418Z,-1.50
2018-02-23T03:45:50.637Z,-1.40
2018-02-23T03:48:19.056Z,-1.40
2018-02-23T03:50:47.501Z,-1.40
2018-02-23T03:53:15.233Z,-1.50
2018-02-23T03:55:42.930Z,-1.50
2018-02-23T03:58:10.610Z,-1.50
2018-02-23T04:00:38.279Z,-1.40
2018-02-23T04:03:07.674Z,-1.40
2018-02-23T04:05:35.325Z,-1.40
2018-02-23T04:08:03.181Z,-1.40
2018-02-23T04:10:31.639Z,-1.50
2018-02-23T04:12:59.833Z,-1.20
2018-02-23T04:15:27.351Z,-1.40
2018-02-23T04:17:58.256Z,-1.40
2018-02-23T04:20:29.141Z,-1.40
2018-02-23T04:25:29.526Z,-1.50
2018-02-23T04:27:57.851Z,-0.90
2018-02-23T04:30:26.130Z,-1.40
2018-02-23T04:32:53.859Z,-1.20
2018-02-23T04:35:21.521Z,-1.40
2018-02-23T04:37:49.337Z,-1.30
2018-02-23T04:40:17.018Z,-1.20
2018-02-23T04:42:45.366Z,-1.20
2018-02-23T04:45:15.927Z,-1.30
2018-02-23T04:47:46.386Z,-1.20
2018-02-23T04:50:15.883Z,-1.20
2018-02-23T04:52:43.583Z,-1.20
2018-02-23T04:55:14.501Z,-1.10
2018-02-23T04:57:44.180Z,-1.30
2018-02-23T05:00:12.207Z,-1.30
2018-02-23T05:02:40.542Z,-1.40
2018-02-23T05:05:11.530Z,-1.40
2018-02-23T05:07:39.219Z,-1.40
2018-02-23T05:10:09.590Z,-1.40
2018-02-23T05:12:40.751Z,-1.40
2018-02-23T05:15:12.799Z,-1.30
2018-02-23T05:17:42.068Z,-1.40
2018-02-23T05:20:10.489Z,-1.30
2018-02-23T05:22:38.878Z,-1.30
2018-02-23T05:25:06.936Z,-1.30
2018-02-23T05:27:37.953Z,-1.30
2018-02-23T05:30:05.533Z,-1.30
2018-02-23T05:32:37.426Z,-1.40
2018-02-23T05:35:05.986Z,-1.30
2018-02-23T05:37:33.628Z,-0.60
2018-02-23T05:40:02.700Z,-1.30
2018-02-23T05:42:31.184Z,-1.20
2018-02-23T05:45:00.211Z,-1.20
2018-02-23T05:47:27.824Z,-1.20
2018-02-23T05:49:55.853Z,-1.30
2018-02-23T05:52:24.903Z,-1.20
2018-02-23T05:54:53.496Z,-1.30
2018-02-23T05:57:21.635Z,-1.30
2018-02-23T05:59:49.299Z,-1.20
2018-02-23T06:02:16.939Z,-1.00
2018-02-23T06:04:45.417Z,-1.00
2018-02-23T06:07:13.818Z,-1.00
2018-02-23T06:09:41.443Z,-1.30
2018-02-23T06:12:09.122Z,-1.20
2018-02-23T06:14:38.369Z,-1.30
2018-02-23T06:17:11.990Z,-1.30
2018-02-23T06:19:45.269Z,-1.30
2018-02-23T06:22:12.836Z,-1.40
2018-02-23T06:24:40.458Z,-1.40
2018-02-23T06:27:08.001Z,-1.50
2018-02-23T06:29:35.991Z,-1.50
2018-02-23T06:32:04.032Z,-1.50
2018-02-23T06:34:33.038Z,-1.70
2018-02-23T06:37:01.097Z,-1.70
2018-02-23T06:39:29.620Z,-1.70
2018-02-23T06:41:57.325Z,-1.70
2018-02-23T06:44:26.353Z,-1.80
2018-02-23T06:47:00.113Z,-1.80
2018-02-23T06:49:27.651Z,-1.80
2018-02-23T06:51:55.631Z,-1.80
2018-02-23T06:54:23.209Z,-1.70
2018-02-23T06:56:51.619Z,-1.60
2018-02-23T06:59:20.598Z,-1.60
2018-02-23T07:01:48.341Z,-1.50
2018-02-23T07:04:16.377Z,-1.60
2018-02-23T07:06:44.313Z,-1.60
2018-02-23T07:09:12.343Z,-1.70
2018-02-23T07:11:40.483Z,-1.60
2018-02-23T07:14:08.186Z,-1.80
2018-02-23T07:16:38.075Z,-1.70
2018-02-23T07:19:07.328Z,-1.80
2018-02-23T07:21:41.139Z,-1.80
2018-02-23T07:24:11.465Z,-1.60
2018-02-23T07:26:39.522Z,-1.50
2018-02-23T07:29:11.044Z,-1.60
2018-02-23T07:31:39.559Z,-1.60
2018-02-23T07:34:12.388Z,-1.50
2018-02-23T07:36:45.136Z,-1.60
2018-02-23T07:39:14.022Z,-1.70
2018-02-23T07:41:41.526Z,-1.60
2018-02-23T07:44:09.146Z,-1.70
2018-02-23T07:46:39.375Z,-1.80
2018-02-23T07:49:10.239Z,-1.80
2018-02-23T07:51:38.575Z,-1.70
2018-02-23T07:54:12.738Z,-1.60
2018-02-23T07:56:41.199Z,-1.80
2018-02-23T07:59:11.417Z,-1.60
2018-02-23T08:01:42.382Z,-1.60
2018-02-23T08:04:10.028Z,-1.70
2018-02-23T08:06:41.946Z,-1.70
2018-02-23T08:09:10.958Z,-1.70
2018-02-23T08:11:40.763Z,-1.70
2018-02-23T08:14:09.133Z,-1.60
2018-02-23T08:16:42.169Z,-1.70
2018-02-23T08:19:13.188Z,-1.50
2018-02-23T08:21:42.822Z,-1.50
2018-02-23T08:24:12.001Z,-1.50
2018-02-23T08:26:41.244Z,-1.50
2018-02-23T08:31:44.669Z,-1.50
2018-02-23T08:34:12.956Z,-1.70
2018-02-23T08:36:45.452Z,-1.50
2018-02-23T08:39:19.915Z,-1.60
2018-02-23T08:41:47.575Z,-1.80
2018-02-23T08:44:17.200Z,-2.00
2018-02-23T08:46:47.998Z,-2.00
2018-02-23T08:49:16.683Z,-1.90
2018-02-23T08:51:44.956Z,-1.90
2018-02-23T08:54:15.115Z,-1.70
2018-02-23T08:56:43.491Z,-1.70
2018-02-23T08:59:11.063Z,-1.20
2018-02-23T09:01:41.452Z,-1.10
2018-02-23T09:04:13.334Z,-1.10
2018-02-23T09:06:44.693Z,-0.90
2018-02-23T09:09:13.700Z,-1.00
2018-02-23T09:11:43.153Z,-1.00
2018-02-23T09:14:11.101Z,-0.90
2018-02-23T09:16:43.045Z,-0.90
2018-02-23T09:19:10.588Z,-0.80
2018-02-23T09:21:40.681Z,-0.70
2018-02-23T09:24:08.597Z,-0.60
2018-02-23T09:26:36.912Z,-1.00
2018-02-23T09:29:08.618Z,-1.00
2018-02-23T09:31:36.967Z,-1.10
2018-02-23T09:34:16.390Z,-0.90
2018-02-23T09:36:44.007Z,-0.80
2018-02-23T09:39:11.956Z,-0.80
2018-02-23T09:41:39.441Z,-0.70
2018-02-23T09:44:08.114Z,-0.60
2018-02-23T09:46:37.008Z,-0.70
2018-02-23T09:49:05.494Z,-1.00
2018-02-23T09:51:35.217Z,-1.00
2018-02-23T09:54:03.973Z,-1.10
2018-02-23T09:56:32.354Z,-0.10
2018-02-23T09:59:00.602Z,-1.40
2018-02-23T10:01:29.676Z,-1.40
2018-02-23T10:03:57.170Z,-1.30
2018-02-23T10:06:24.659Z,-1.40
2018-02-23T10:08:53.391Z,-1.30
2018-02-23T10:11:20.969Z,-1.10
2018-02-23T10:13:50.362Z,-1.00
2018-02-23T10:16:25.396Z,-0.80
2018-02-23T10:18:56.049Z,-0.80
2018-02-23T10:21:23.559Z,-1.00
2018-02-23T10:23:52.421Z,-1.20
2018-02-23T10:26:20.023Z,-1.20
2018-02-23T10:28:52.896Z,-1.10
2018-02-23T10:31:24.579Z,-1.10
2018-02-23T10:33:52.164Z,-0.90
2018-02-23T10:36:26.165Z,-1.00
2018-02-23T10:38:53.812Z,-0.90
2018-02-23T10:41:22.159Z,-0.90
2018-02-23T10:43:51.846Z,-0.80
2018-02-23T10:46:21.123Z,-0.90
2018-02-23T10:48:49.326Z,-1.00
2018-02-23T10:51:16.954Z,-1.10
2018-02-23T10:53:44.975Z,-1.20
2018-02-23T10:56:13.692Z,-1.10
2018-02-23T10:58:43.052Z,-0.90
2018-02-23T11:01:11.017Z,-1.10
2018-02-23T11:03:38.571Z,-1.00
2018-02-23T11:06:07.147Z,-1.30
2018-02-23T11:08:34.964Z,-1.20
2018-02-23T11:11:02.935Z,-1.10
2018-02-23T11:13:32.287Z,-1.10
2018-02-23T11:16:03.890Z,-1.20
2018-02-23T11:18:32.045Z,-1.20
2018-02-23T11:21:02.583Z,-1.00
2018-02-23T11:23:33.085Z,-0.80
2018-02-23T11:26:01.789Z,-0.80
2018-02-23T11:28:30.314Z,-1.00
2018-02-23T11:30:58.128Z,-1.10
2018-02-23T11:33:26.621Z,-1.00
2018-02-23T11:35:54.914Z,-0.90
2018-02-23T11:38:22.500Z,-0.50
2018-02-23T11:40:54.475Z,-0.80
2018-02-23T11:43:22.577Z,-0.90
2018-02-23T11:45:51.602Z,-1.00
2018-02-23T11:48:21.856Z,-1.10
2018-02-23T11:50:51.196Z,-0.90
2018-02-23T11:53:21.630Z,-1.00
2018-02-23T11:55:50.943Z,-1.10
2018-02-23T11:58:18.975Z,-1.00
2018-02-23T12:00:46.855Z,-1.20
2018-02-23T12:03:17.308Z,-1.20
2018-02-23T12:05:48.054Z,-1.10
2018-02-23T12:08:16.393Z,-1.10
2018-02-23T12:10:44.066Z,-1.20
2018-02-23T12:13:12.995Z,-1.30
2018-02-23T12:15:43.478Z,-1.20
2018-02-23T12:18:13.130Z,-1.20
2018-02-23T12:20:42.259Z,-1.10
2018-02-23T12:23:13.513Z,-1.10
2018-02-23T12:25:44.477Z,-0.90
2018-02-23T12:28:14.639Z,-0.80
2018-02-23T12:30:42.229Z,-0.80
2018-02-23T12:33:13.546Z,-0.70
2018-02-23T12:35:42.732Z,-0.70
2018-02-23T12:38:11.234Z,-0.70
2018-02-23T12:43:14.891Z,-0.80
2018-02-23T12:45:45.191Z,-0.80
2018-02-23T12:48:12.772Z,-0.70
2018-02-23T12:50:41.116Z,-0.50
2018-02-23T12:53:09.642Z,-0.60
2018-02-23T12:55:37.969Z,-0.60
2018-02-23T12:58:05.459Z,-0.70
2018-02-23T13:00:33.168Z,-0.70
2018-02-23T13:03:00.627Z,-0.50
2018-02-23T13:05:29.188Z,-0.70
2018-02-23T13:07:58.591Z,-0.60
2018-02-23T13:10:26.877Z,-0.80
2018-02-23T13:12:55.173Z,-0.90
2018-02-23T13:15:22.649Z,-0.70
2018-02-23T13:17:50.205Z,-1.00
2018-02-23T13:20:18.085Z,-1.00
2018-02-23T13:22:45.603Z,-1.00
2018-02-23T13:25:13.114Z,-0.80
2018-02-23T13:27:40.836Z,-0.70
2018-02-23T13:30:08.313Z,-0.70
2018-02-23T13:32:35.872Z,-0.60
2018-02-23T13:35:03.437Z,-0.80
2018-02-23T13:37:30.961Z,-0.70
2018-02-23T13:40:01.699Z,-0.90
2018-02-23T13:42:30.389Z,-0.80
2018-02-23T13:44:58.075Z,-0.60
2018-02-23T13:47:26.490Z,-0.70
2018-02-23T13:49:54.702Z,-0.80
2018-02-23T13:52:22.278Z,-0.90
2018-02-23T13:54:54.146Z,-0.80
2018-02-23T13:57:28.898Z,-0.80
2018-02-23T13:59:57.389Z,-1.00
2018-02-23T14:02:27.886Z,-1.00
2018-02-23T14:04:57.043Z,-0.90
2018-02-23T14:10:00.343Z,-0.80
2018-02-23T14:12:29.232Z,-0.90
2018-02-23T14:14:58.212Z,-0.80
2018-02-23T14:17:27.785Z,-0.10
2018-02-23T14:19:56.815Z,-0.50
2018-02-23T14:22:24.531Z,-0.50
2018-02-23T14:24:52.703Z,-0.50
2018-02-23T14:27:23.044Z,-0.60
2018-02-23T14:29:51.388Z,-0.70
2018-02-23T14:32:20.856Z,-0.60
2018-02-23T14:34:49.540Z,-0.50
2018-02-23T14:37:21.264Z,-0.50
2018-02-23T14:39:48.845Z,-0.40
2018-02-23T14:42:18.682Z,-0.40
2018-02-23T14:44:49.107Z,-0.30
2018-02-23T14:47:19.158Z,-0.20
2018-02-23T14:49:58.559Z,-0.20
2018-02-23T14:52:26.152Z,-0.10
2018-02-23T14:54:53.774Z,-0.30
2018-02-23T14:57:22.128Z,-0.20
2018-02-23T14:59:50.217Z,-0.30
2018-02-23T15:02:19.415Z,-0.20
2018-02-23T15:04:48.629Z,-0.30
2018-02-23T15:07:17.260Z,-0.30
2018-02-23T15:09:45.246Z,-0.30
2018-02-23T15:12:13.674Z,-0.40
2018-02-23T15:14:41.204Z,-0.10
2018-02-23T15:17:08.813Z,-0.80
2018-02-23T15:19:37.204Z,-0.70
2018-02-23T15:22:05.531Z,-0.60
2018-02-23T15:24:34.055Z,-0.60
2018-02-23T15:27:01.618Z,-0.70
2018-02-23T15:29:30.281Z,-0.80
2018-02-23T15:32:10.036Z,-0.70
2018-02-23T15:34:39.327Z,-0.60
2018-02-23T15:37:09.448Z,-0.60
2018-02-23T15:39:37.704Z,-0.60
2018-02-23T15:42:06.530Z,-0.60
2018-02-23T15:44:34.973Z,-0.60
2018-02-23T15:47:03.753Z,-0.80
2018-02-23T15:49:37.988Z,-0.80
2018-02-23T15:52:15.716Z,-0.70
2018-02-23T15:54:44.207Z,-0.60
2018-02-23T15:57:30.069Z,-0.50
2018-02-23T16:00:00.535Z,-0.50
2018-02-23T16:02:28.285Z,-0.60
2018-02-23T16:05:01.429Z,-0.80
2018-02-23T16:07:30.383Z,-0.70
2018-02-23T16:10:00.617Z,-0.80
2018-02-23T16:12:28.599Z,-0.80
2018-02-23T16:14:59.417Z,-0.70
2018-02-23T16:17:27.846Z,-0.70
2018-02-23T16:19:56.868Z,-0.90
2018-02-23T16:22:27.118Z,-0.80
2018-02-23T16:24:58.634Z,-0.80
2018-02-23T16:27:26.853Z,-0.70
2018-02-23T16:29:58.186Z,-0.70
2018-02-23T16:32:30.173Z,-0.70
2018-02-23T16:34:59.593Z,-0.80
2018-02-23T16:37:27.347Z,-0.60
2018-02-23T16:40:00.183Z,-0.60
2018-02-23T16:42:28.848Z,-0.50
2018-02-23T16:44:57.270Z,-0.30
2018-02-23T16:47:25.695Z,-0.30
2018-02-23T16:49:56.596Z,-0.40
2018-02-23T16:52:26.584Z,-0.40
2018-02-23T16:54:59.604Z,-0.40
2018-02-23T16:57:29.080Z,-0.60
2018-02-23T16:59:57.509Z,-0.60
2018-02-23T17:02:26.130Z,-0.50
2018-02-23T17:04:53.761Z,-0.40
2018-02-23T17:07:24.246Z,-0.40
2018-02-23T17:09:52.132Z,-0.50
2018-02-23T17:15:00.088Z,-0.70
2018-02-23T17:17:28.523Z,-0.60
2018-02-23T17:19:56.212Z,-0.40
2018-02-23T17:22:25.676Z,-0.30
2018-02-23T17:25:01.994Z,-0.30
2018-02-23T17:27:29.621Z,-0.30
2018-02-23T17:29:57.428Z,-0.40
2018-02-23T17:32:25.134Z,-0.40
2018-02-23T17:34:52.717Z,-0.50
2018-02-23T17:37:22.049Z,-0.50
2018-02-23T17:39:50.783Z,-0.50
2018-02-23T17:42:21.056Z,-0.60
2018-02-23T17:44:50.301Z,-0.60
2018-02-23T17:47:20.580Z,-0.60
2018-02-23T17:49:50.100Z,-0.70
2018-02-23T17:52:18.433Z,-0.60
2018-02-23T17:54:47.075Z,-0.60
2018-02-23T17:57:16.284Z,-0.50
2018-02-23T17:59:46.106Z,-0.40
2018-02-23T18:02:14.450Z,-0.60
2018-02-23T18:04:42.070Z,-0.60
2018-02-23T18:07:09.663Z,-0.50
2018-02-23T18:09:41.455Z,-0.50
2018-02-23T18:12:09.771Z,-0.60
2018-02-23T18:14:38.013Z,-0.60
2018-02-23T18:17:10.617Z,-0.60
2018-02-23T18:19:41.605Z,-0.50
2018-02-23T18:22:10.639Z,-0.50
2018-02-23T18:24:40.751Z,-0.50
2018-02-23T18:27:09.235Z,-0.60
2018-02-23T18:29:36.904Z,-0.50
2018-02-23T18:32:05.375Z,-0.50
2018-02-23T18:34:33.923Z,-0.50
2018-02-23T18:37:02.881Z,-0.60
2018-02-23T18:39:30.405Z,-0.50
2018-02-23T18:41:58.069Z,-0.60
2018-02-23T18:44:25.602Z,-0.60
2018-02-23T18:46:53.980Z,-0.70
2018-02-23T18:49:23.776Z,-0.70
2018-02-23T18:51:52.322Z,-0.70
2018-02-23T18:54:20.276Z,-0.80
2018-02-23T18:56:50.776Z,-0.80
2018-02-23T18:59:21.634Z,-0.70
2018-02-23T19:01:49.281Z,-0.60
2018-02-23T19:04:16.951Z,-0.60
2018-02-23T19:06:44.691Z,-0.60
2018-02-23T19:09:13.804Z,-0.50
2018-02-23T19:11:43.900Z,-0.50
2018-02-23T19:14:12.323Z,-0.40
2018-02-23T19:16:40.187Z,-0.40
2018-02-23T19:19:08.177Z,-0.60
2018-02-23T19:21:39.028Z,-0.60
2018-02-23T19:24:06.562Z,-0.90
2018-02-23T19:26:35.616Z,-0.50
2018-02-23T19:29:06.862Z,-0.50
2018-02-23T19:31:36.018Z,-0.40
2018-02-23T19:34:03.578Z,-0.60
2018-02-23T19:36:32.868Z,-0.60
2018-02-23T19:39:00.418Z,-0.60
2018-02-23T19:41:29.216Z,-0.70
2018-02-23T19:43:58.060Z,-0.50
2018-02-23T19:46:28.031Z,-0.30
2018-02-23T19:48:56.141Z,-0.30
2018-02-23T19:51:25.138Z,-0.40
2018-02-23T19:53:53.548Z,-0.30
2018-02-23T19:56:21.141Z,-0.40
2018-02-23T19:58:48.752Z,-0.30
2018-02-23T20:01:17.069Z,-0.40
2018-02-23T20:03:48.619Z,-0.50
2018-02-23T20:06:16.205Z,-0.80
2018-02-23T20:08:43.866Z,-0.70
2018-02-23T20:11:11.973Z,-0.60
2018-02-23T20:13:39.791Z,-0.60
2018-02-23T20:16:08.235Z,-0.60
2018-02-23T20:18:37.564Z,-0.50
2018-02-23T20:21:07.210Z,-0.60
2018-02-23T20:23:37.167Z,-0.50
2018-02-23T20:26:06.976Z,-0.50
2018-02-23T20:28:35.399Z,-0.50
2018-02-23T20:31:05.899Z,-0.60
2018-02-23T20:33:33.523Z,-0.60
2018-02-23T20:36:01.918Z,-0.70
2018-02-23T20:38:30.318Z,-0.70
2018-02-23T20:40:57.855Z,-0.70
2018-02-23T20:43:25.419Z,-0.80
2018-02-23T20:45:54.620Z,-0.70
2018-02-23T20:48:23.159Z,-0.70
2018-02-23T20:50:51.441Z,-0.60
2018-02-23T20:53:21.443Z,-0.60
2018-02-23T20:55:49.063Z,-0.50
2018-02-23T20:58:17.211Z,-0.50
2018-02-23T21:00:44.762Z,-0.40
2018-02-23T21:03:14.695Z,-0.30
2018-02-23T21:05:42.724Z,-0.30
2018-02-23T21:08:11.150Z,-0.30
2018-02-23T21:10:38.709Z,-0.30
2018-02-23T21:13:07.242Z,-0.30
2018-02-23T21:15:35.611Z,-0.40
2018-02-23T21:18:04.054Z,-0.50
2018-02-23T21:20:32.293Z,-0.40
2018-02-23T21:22:59.923Z,1.20
2018-02-23T21:25:28.504Z,-0.60
2018-02-23T21:27:57.551Z,-0.60
2018-02-23T21:30:25.191Z,-0.60
2018-02-23T21:32:56.946Z,-0.60
2018-02-23T21:35:27.179Z,-0.50
2018-02-23T21:37:55.078Z,-0.50
2018-02-23T21:40:24.444Z,-0.40
2018-02-23T21:42:52.049Z,-0.10
2018-02-23T21:45:19.680Z,-0.50
2018-02-23T21:47:50.139Z,-0.50
2018-02-23T21:50:17.686Z,-0.50
2018-02-23T21:52:45.335Z,-0.60
2018-02-23T21:55:18.434Z,-0.60
2018-02-23T21:57:53.823Z,-0.40
2018-02-23T22:00:23.940Z,-0.40
2018-02-23T22:02:53.548Z,-0.50
2018-02-23T22:05:22.454Z,-0.60
2018-02-23T22:07:51.197Z,-0.60
2018-02-23T22:10:22.570Z,-0.60
2018-02-23T22:12:50.971Z,-0.60
2018-02-23T22:15:21.033Z,-0.80
2018-02-23T22:17:55.317Z,-0.70
2018-02-23T22:20:26.846Z,-0.80
2018-02-23T22:22:58.003Z,-0.70
2018-02-23T22:25:26.314Z,-0.80
2018-02-23T22:27:55.346Z,-0.80
2018-02-23T22:30:23.398Z,-0.80
2018-02-23T22:32:51.396Z,-0.70
2018-02-23T22:35:19.760Z,-0.60
2018-02-23T22:37:49.389Z,-0.50
2018-02-23T22:40:17.875Z,-0.40
2018-02-23T22:42:47.468Z,-0.30
2018-02-23T22:45:17.652Z,-0.30
2018-02-23T22:47:45.206Z,-0.30
2018-02-23T22:50:12.786Z,-0.30
2018-02-23T22:52:41.739Z,-0.40
2018-02-23T22:55:10.046Z,-0.50
2018-02-23T22:57:37.728Z,-0.50
2018-02-23T23:00:08.695Z,-0.70
2018-02-23T23:02:37.114Z,-0.60
2018-02-23T23:05:06.180Z,-0.60
2018-02-23T23:07:34.512Z,-0.60
2018-02-23T23:10:02.994Z,-0.70
2018-02-23T23:12:33.346Z,-0.70
2018-02-23T23:15:01.769Z,-0.70
2018-02-23T23:17:29.382Z,-0.70
2018-02-23T23:19:57.067Z,-0.90
2018-02-23T23:22:25.269Z,-0.90
2018-02-23T23:24:52.900Z,-0.70
2018-02-23T23:27:20.468Z,-0.80
2018-02-23T23:29:48.960Z,-0.80
2018-02-23T23:32:17.180Z,-0.80
2018-02-23T23:34:45.552Z,-0.80
2018-02-23T23:37:13.210Z,-0.80
2018-02-23T23:39:47.452Z,-0.80
2018-02-23T23:42:18.340Z,-0.70
2018-02-23T23:44:50.845Z,-0.70
2018-02-23T23:47:22.182Z,-0.70
2018-02-23T23:49:53.452Z,-0.70
2018-02-23T23:52:24.536Z,-0.70
2018-02-23T23:54:56.719Z,-0.80
2018-02-23T23:57:25.727Z,-0.70
2018-02-23T23:59:57.488Z,-0.70
